sensor_id;sensor_type;location;lat;lon;timestamp;temperature;humidity
22678;DHT22;26259;50.214;18.620;2023-04-06T00:00:51;-4.70;99.90
22678;DHT22;26259;50.214;18.620;2023-04-06T00:03:17;-4.70;99.90
22678;DHT22;26259;50.214;18.620;2023-04-06T00:05:42;-4.80;99.90
22678;DHT22;26259;50.214;18.620;2023-04-06T00:08:08;-4.80;99.90
22678;DHT22;26259;50.214;18.620;2023-04-06T00:10:34;-4.80;99.90
22678;DHT22;26259;50.214;18.620;2023-04-06T00:12:59;-4.80;99.90
22678;DHT22;26259;50.214;18.620;2023-04-06T00:15:26;-4.80;99.90
22678;DHT22;26259;50.214;18.620;2023-04-06T00:17:51;-4.70;99.90
22678;DHT22;26259;50.214;18.620;2023-04-06T00:20:18;-4.80;99.90
22678;DHT22;26259;50.214;18.620;2023-04-06T00:22:44;-4.80;99.90
22678;DHT22;26259;50.214;18.620;2023-04-06T00:25:11;-4.90;99.90
22678;DHT22;26259;50.214;18.620;2023-04-06T00:27:37;-4.80;99.90
22678;DHT22;26259;50.214;18.620;2023-04-06T00:30:07;-4.90;99.90
22678;DHT22;26259;50.214;18.620;2023-04-06T00:32:33;-4.90;99.90
22678;DHT22;26259;50.214;18.620;2023-04-06T00:35:01;-4.90;99.90
22678;DHT22;26259;50.214;18.620;2023-04-06T00:37:26;-5.00;99.90
22678;DHT22;26259;50.214;18.620;2023-04-06T00:39:52;-5.00;99.90
22678;DHT22;26259;50.214;18.620;2023-04-06T00:42:18;-5.00;99.90
22678;DHT22;26259;50.214;18.620;2023-04-06T00:44:52;-5.00;99.90
22678;DHT22;26259;50.214;18.620;2023-04-06T00:47:17;-5.00;99.90
22678;DHT22;26259;50.214;18.620;2023-04-06T00:49:43;-5.10;99.90
22678;DHT22;26259;50.214;18.620;2023-04-06T00:52:09;-5.10;99.90
22678;DHT22;26259;50.214;18.620;2023-04-06T00:54:34;-5.20;99.90
22678;DHT22;26259;50.214;18.620;2023-04-06T00:57:00;-5.30;99.90
22678;DHT22;26259;50.214;18.620;2023-04-06T00:59:27;-5.20;99.90
22678;DHT22;26259;50.214;18.620;2023-04-06T01:01:52;-5.20;99.90
22678;DHT22;26259;50.214;18.620;2023-04-06T01:04:18;-5.20;99.90
22678;DHT22;26259;50.214;18.620;2023-04-06T01:06:44;-5.20;99.90
22678;DHT22;26259;50.214;18.620;2023-04-06T01:09:10;-5.10;99.90
22678;DHT22;26259;50.214;18.620;2023-04-06T01:11:36;-5.20;99.90
22678;DHT22;26259;50.214;18.620;2023-04-06T01:14:02;-5.20;99.90
22678;DHT22;26259;50.214;18.620;2023-04-06T01:16:28;-5.20;99.90
22678;DHT22;26259;50.214;18.620;2023-04-06T01:18:54;-5.20;99.90
22678;DHT22;26259;50.214;18.620;2023-04-06T01:21:19;-5.20;99.90
22678;DHT22;26259;50.214;18.620;2023-04-06T01:23:45;-5.20;99.90
22678;DHT22;26259;50.214;18.620;2023-04-06T01:26:12;-5.20;99.90
22678;DHT22;26259;50.214;18.620;2023-04-06T01:28:38;-5.20;99.90
22678;DHT22;26259;50.214;18.620;2023-04-06T01:31:05;-5.30;99.90
22678;DHT22;26259;50.214;18.620;2023-04-06T01:33:31;-5.30;99.90
22678;DHT22;26259;50.214;18.620;2023-04-06T01:35:56;-5.30;99.90
22678;DHT22;26259;50.214;18.620;2023-04-06T01:38:22;-5.40;99.90
22678;DHT22;26259;50.214;18.620;2023-04-06T01:40:47;-5.40;99.90
22678;DHT22;26259;50.214;18.620;2023-04-06T01:43:13;-5.30;99.90
22678;DHT22;26259;50.214;18.620;2023-04-06T01:45:39;-5.30;99.90
22678;DHT22;26259;50.214;18.620;2023-04-06T01:48:04;-5.30;99.90
22678;DHT22;26259;50.214;18.620;2023-04-06T01:50:30;-5.40;99.90
22678;DHT22;26259;50.214;18.620;2023-04-06T01:52:56;-5.40;99.90
22678;DHT22;26259;50.214;18.620;2023-04-06T01:55:22;-5.40;99.90
22678;DHT22;26259;50.214;18.620;2023-04-06T01:57:47;-5.40;99.90
22678;DHT22;26259;50.214;18.620;2023-04-06T02:00:13;-5.40;99.90
22678;DHT22;26259;50.214;18.620;2023-04-06T02:02:39;-5.40;99.90
22678;DHT22;26259;50.214;18.620;2023-04-06T02:05:05;-5.40;99.90
22678;DHT22;26259;50.214;18.620;2023-04-06T02:07:31;-5.40;99.90
22678;DHT22;26259;50.214;18.620;2023-04-06T02:09:56;-5.40;99.90
22678;DHT22;26259;50.214;18.620;2023-04-06T02:12:22;-5.40;99.90
22678;DHT22;26259;50.214;18.620;2023-04-06T02:14:49;-5.40;99.90
22678;DHT22;26259;50.214;18.620;2023-04-06T02:17:14;-5.40;99.90
22678;DHT22;26259;50.214;18.620;2023-04-06T02:19:40;-5.40;99.90
22678;DHT22;26259;50.214;18.620;2023-04-06T02:22:06;-5.30;99.90
22678;DHT22;26259;50.214;18.620;2023-04-06T02:24:32;-5.30;99.90
22678;DHT22;26259;50.214;18.620;2023-04-06T02:26:57;-5.20;99.90
22678;DHT22;26259;50.214;18.620;2023-04-06T02:29:23;-5.20;99.90
22678;DHT22;26259;50.214;18.620;2023-04-06T02:31:48;-5.20;99.90
22678;DHT22;26259;50.214;18.620;2023-04-06T02:34:14;-5.20;99.90
22678;DHT22;26259;50.214;18.620;2023-04-06T02:36:46;-5.20;99.90
22678;DHT22;26259;50.214;18.620;2023-04-06T02:39:12;-5.20;99.90
22678;DHT22;26259;50.214;18.620;2023-04-06T02:41:38;-5.20;99.90
22678;DHT22;26259;50.214;18.620;2023-04-06T02:44:05;-5.20;99.90
22678;DHT22;26259;50.214;18.620;2023-04-06T02:46:31;-5.10;99.90
22678;DHT22;26259;50.214;18.620;2023-04-06T02:48:56;-5.10;99.90
22678;DHT22;26259;50.214;18.620;2023-04-06T02:51:25;-5.00;99.90
22678;DHT22;26259;50.214;18.620;2023-04-06T02:53:51;-5.00;99.90
22678;DHT22;26259;50.214;18.620;2023-04-06T02:56:16;-5.00;99.90
22678;DHT22;26259;50.214;18.620;2023-04-06T02:58:42;-5.00;99.90
22678;DHT22;26259;50.214;18.620;2023-04-06T03:01:08;-5.10;99.90
22678;DHT22;26259;50.214;18.620;2023-04-06T03:03:33;-5.10;99.90
22678;DHT22;26259;50.214;18.620;2023-04-06T03:05:59;-5.10;99.90
22678;DHT22;26259;50.214;18.620;2023-04-06T03:08:25;-5.10;99.90
22678;DHT22;26259;50.214;18.620;2023-04-06T03:10:51;-5.20;99.90
22678;DHT22;26259;50.214;18.620;2023-04-06T03:13:16;-5.10;99.90
22678;DHT22;26259;50.214;18.620;2023-04-06T03:15:42;-5.10;99.90
22678;DHT22;26259;50.214;18.620;2023-04-06T03:18:07;-5.10;99.90
22678;DHT22;26259;50.214;18.620;2023-04-06T03:20:33;-5.10;99.90
22678;DHT22;26259;50.214;18.620;2023-04-06T03:22:58;-5.10;99.90
22678;DHT22;26259;50.214;18.620;2023-04-06T03:25:24;-5.10;99.90
22678;DHT22;26259;50.214;18.620;2023-04-06T03:27:50;-5.10;99.90
22678;DHT22;26259;50.214;18.620;2023-04-06T03:30:15;-5.10;99.90
22678;DHT22;26259;50.214;18.620;2023-04-06T03:32:44;-5.10;99.90
22678;DHT22;26259;50.214;18.620;2023-04-06T03:35:10;-5.10;99.90
22678;DHT22;26259;50.214;18.620;2023-04-06T03:37:35;-5.10;99.90
22678;DHT22;26259;50.214;18.620;2023-04-06T03:40:02;-5.10;99.90
22678;DHT22;26259;50.214;18.620;2023-04-06T03:42:28;-5.10;99.90
22678;DHT22;26259;50.214;18.620;2023-04-06T03:44:53;-5.20;99.90
22678;DHT22;26259;50.214;18.620;2023-04-06T03:47:19;-5.20;99.90
22678;DHT22;26259;50.214;18.620;2023-04-06T03:49:44;-5.20;99.90
22678;DHT22;26259;50.214;18.620;2023-04-06T03:52:10;-5.30;99.90
22678;DHT22;26259;50.214;18.620;2023-04-06T03:54:36;-5.30;99.90
22678;DHT22;26259;50.214;18.620;2023-04-06T03:57:02;-5.30;99.90
22678;DHT22;26259;50.214;18.620;2023-04-06T03:59:27;-5.30;99.90
22678;DHT22;26259;50.214;18.620;2023-04-06T04:01:53;-5.40;99.90
22678;DHT22;26259;50.214;18.620;2023-04-06T04:04:18;-5.40;99.90
22678;DHT22;26259;50.214;18.620;2023-04-06T04:06:44;-5.40;99.90
22678;DHT22;26259;50.214;18.620;2023-04-06T04:09:10;-5.30;99.90
22678;DHT22;26259;50.214;18.620;2023-04-06T04:11:35;-5.40;99.90
22678;DHT22;26259;50.214;18.620;2023-04-06T04:14:01;-5.40;99.90
22678;DHT22;26259;50.214;18.620;2023-04-06T04:16:26;-5.40;99.90
22678;DHT22;26259;50.214;18.620;2023-04-06T04:18:52;-5.40;99.90
22678;DHT22;26259;50.214;18.620;2023-04-06T04:21:18;-5.50;99.90
22678;DHT22;26259;50.214;18.620;2023-04-06T04:23:43;-5.50;99.90
22678;DHT22;26259;50.214;18.620;2023-04-06T04:26:09;-5.50;99.90
22678;DHT22;26259;50.214;18.620;2023-04-06T04:28:34;-5.50;99.90
22678;DHT22;26259;50.214;18.620;2023-04-06T04:31:00;-5.50;99.90
22678;DHT22;26259;50.214;18.620;2023-04-06T04:33:25;-5.50;99.90
22678;DHT22;26259;50.214;18.620;2023-04-06T04:35:51;-5.50;99.90
22678;DHT22;26259;50.214;18.620;2023-04-06T04:38:17;-5.40;99.90
22678;DHT22;26259;50.214;18.620;2023-04-06T04:40:42;-5.40;99.90
22678;DHT22;26259;50.214;18.620;2023-04-06T04:43:08;-5.40;99.90
22678;DHT22;26259;50.214;18.620;2023-04-06T04:45:34;-5.40;99.90
22678;DHT22;26259;50.214;18.620;2023-04-06T04:47:59;-5.30;99.90
22678;DHT22;26259;50.214;18.620;2023-04-06T04:50:25;-5.20;99.90
22678;DHT22;26259;50.214;18.620;2023-04-06T04:52:50;-5.10;99.90
22678;DHT22;26259;50.214;18.620;2023-04-06T04:55:16;-5.10;99.90
22678;DHT22;26259;50.214;18.620;2023-04-06T04:57:42;-5.00;99.90
22678;DHT22;26259;50.214;18.620;2023-04-06T05:00:08;-5.00;99.90
22678;DHT22;26259;50.214;18.620;2023-04-06T05:02:34;-4.90;99.90
22678;DHT22;26259;50.214;18.620;2023-04-06T05:05:00;-4.80;99.90
22678;DHT22;26259;50.214;18.620;2023-04-06T05:07:25;-4.70;99.90
22678;DHT22;26259;50.214;18.620;2023-04-06T05:09:51;-4.60;99.90
22678;DHT22;26259;50.214;18.620;2023-04-06T05:12:17;-4.50;99.90
22678;DHT22;26259;50.214;18.620;2023-04-06T05:14:43;-4.40;99.90
22678;DHT22;26259;50.214;18.620;2023-04-06T05:17:09;-4.30;99.90
22678;DHT22;26259;50.214;18.620;2023-04-06T05:19:34;-4.10;99.90
22678;DHT22;26259;50.214;18.620;2023-04-06T05:22:00;-4.00;99.90
22678;DHT22;26259;50.214;18.620;2023-04-06T05:24:25;-3.80;99.90
22678;DHT22;26259;50.214;18.620;2023-04-06T05:26:51;-3.70;99.90
22678;DHT22;26259;50.214;18.620;2023-04-06T05:29:16;-3.50;99.90
22678;DHT22;26259;50.214;18.620;2023-04-06T05:31:43;-3.30;99.90
22678;DHT22;26259;50.214;18.620;2023-04-06T05:34:10;-3.10;99.90
22678;DHT22;26259;50.214;18.620;2023-04-06T05:36:35;-2.90;99.90
22678;DHT22;26259;50.214;18.620;2023-04-06T05:39:01;-2.80;99.90
22678;DHT22;26259;50.214;18.620;2023-04-06T05:41:26;-2.50;99.90
22678;DHT22;26259;50.214;18.620;2023-04-06T05:43:52;-2.40;99.90
22678;DHT22;26259;50.214;18.620;2023-04-06T05:46:18;-2.20;99.90
22678;DHT22;26259;50.214;18.620;2023-04-06T05:48:43;-2.10;99.90
22678;DHT22;26259;50.214;18.620;2023-04-06T05:51:10;-1.90;99.90
22678;DHT22;26259;50.214;18.620;2023-04-06T05:53:36;-1.70;99.90
22678;DHT22;26259;50.214;18.620;2023-04-06T05:56:02;-1.60;99.90
22678;DHT22;26259;50.214;18.620;2023-04-06T05:58:28;-1.50;99.90
22678;DHT22;26259;50.214;18.620;2023-04-06T06:00:58;-1.20;99.90
22678;DHT22;26259;50.214;18.620;2023-04-06T06:03:23;-1.10;99.90
22678;DHT22;26259;50.214;18.620;2023-04-06T06:05:49;-1.00;99.90
22678;DHT22;26259;50.214;18.620;2023-04-06T06:08:14;-0.90;99.90
22678;DHT22;26259;50.214;18.620;2023-04-06T06:10:40;-0.80;99.90
22678;DHT22;26259;50.214;18.620;2023-04-06T06:13:06;-0.60;99.90
22678;DHT22;26259;50.214;18.620;2023-04-06T06:15:31;-0.50;99.90
22678;DHT22;26259;50.214;18.620;2023-04-06T06:17:57;-0.50;99.90
22678;DHT22;26259;50.214;18.620;2023-04-06T06:20:22;-0.30;99.90
22678;DHT22;26259;50.214;18.620;2023-04-06T06:22:48;-0.10;99.90
22678;DHT22;26259;50.214;18.620;2023-04-06T06:25:14;0.10;99.90
22678;DHT22;26259;50.214;18.620;2023-04-06T06:27:39;0.10;99.90
22678;DHT22;26259;50.214;18.620;2023-04-06T06:30:05;0.30;99.90
22678;DHT22;26259;50.214;18.620;2023-04-06T06:32:32;0.40;99.90
22678;DHT22;26259;50.214;18.620;2023-04-06T06:34:57;0.60;99.90
22678;DHT22;26259;50.214;18.620;2023-04-06T06:37:23;0.80;99.90
22678;DHT22;26259;50.214;18.620;2023-04-06T06:39:49;0.90;99.90
22678;DHT22;26259;50.214;18.620;2023-04-06T06:42:14;1.10;99.90
22678;DHT22;26259;50.214;18.620;2023-04-06T06:44:40;1.20;99.90
22678;DHT22;26259;50.214;18.620;2023-04-06T06:47:05;1.40;99.90
22678;DHT22;26259;50.214;18.620;2023-04-06T06:49:31;1.60;99.90
22678;DHT22;26259;50.214;18.620;2023-04-06T06:51:56;1.80;99.90
22678;DHT22;26259;50.214;18.620;2023-04-06T06:54:22;1.90;99.90
22678;DHT22;26259;50.214;18.620;2023-04-06T06:56:47;2.00;99.90
22678;DHT22;26259;50.214;18.620;2023-04-06T06:59:13;2.10;99.90
22678;DHT22;26259;50.214;18.620;2023-04-06T07:01:39;2.30;99.90
22678;DHT22;26259;50.214;18.620;2023-04-06T07:04:04;2.20;99.90
22678;DHT22;26259;50.214;18.620;2023-04-06T07:06:30;2.20;99.90
22678;DHT22;26259;50.214;18.620;2023-04-06T07:08:55;2.20;99.90
22678;DHT22;26259;50.214;18.620;2023-04-06T07:11:21;2.30;99.90
22678;DHT22;26259;50.214;18.620;2023-04-06T07:13:46;2.30;99.90
22678;DHT22;26259;50.214;18.620;2023-04-06T07:16:12;2.30;99.90
22678;DHT22;26259;50.214;18.620;2023-04-06T07:18:38;2.30;99.90
22678;DHT22;26259;50.214;18.620;2023-04-06T07:21:03;2.30;99.90
22678;DHT22;26259;50.214;18.620;2023-04-06T07:23:29;2.40;99.90
22678;DHT22;26259;50.214;18.620;2023-04-06T07:25:55;2.50;99.90
22678;DHT22;26259;50.214;18.620;2023-04-06T07:28:20;2.60;99.90
22678;DHT22;26259;50.214;18.620;2023-04-06T07:30:47;2.70;99.90
22678;DHT22;26259;50.214;18.620;2023-04-06T07:33:13;2.80;99.90
22678;DHT22;26259;50.214;18.620;2023-04-06T07:35:38;2.80;99.90
22678;DHT22;26259;50.214;18.620;2023-04-06T07:38:04;2.80;99.90
22678;DHT22;26259;50.214;18.620;2023-04-06T07:40:30;2.80;99.90
22678;DHT22;26259;50.214;18.620;2023-04-06T07:42:57;2.90;99.90
22678;DHT22;26259;50.214;18.620;2023-04-06T07:45:22;3.00;99.90
22678;DHT22;26259;50.214;18.620;2023-04-06T07:47:48;3.00;99.90
22678;DHT22;26259;50.214;18.620;2023-04-06T07:50:15;3.10;99.90
22678;DHT22;26259;50.214;18.620;2023-04-06T07:52:40;3.10;99.90
22678;DHT22;26259;50.214;18.620;2023-04-06T07:55:06;3.30;99.90
22678;DHT22;26259;50.214;18.620;2023-04-06T07:57:32;3.20;99.90
22678;DHT22;26259;50.214;18.620;2023-04-06T07:59:58;3.10;99.90
22678;DHT22;26259;50.214;18.620;2023-04-06T08:02:23;3.00;99.90
22678;DHT22;26259;50.214;18.620;2023-04-06T08:04:49;3.00;99.90
22678;DHT22;26259;50.214;18.620;2023-04-06T08:07:15;3.10;99.90
22678;DHT22;26259;50.214;18.620;2023-04-06T08:09:40;3.20;99.90
22678;DHT22;26259;50.214;18.620;2023-04-06T08:12:06;3.20;99.90
22678;DHT22;26259;50.214;18.620;2023-04-06T08:14:31;3.30;99.90
22678;DHT22;26259;50.214;18.620;2023-04-06T08:16:57;3.50;99.90
22678;DHT22;26259;50.214;18.620;2023-04-06T08:19:23;3.50;99.90
22678;DHT22;26259;50.214;18.620;2023-04-06T08:21:48;3.40;99.90
22678;DHT22;26259;50.214;18.620;2023-04-06T08:24:14;3.60;99.90
22678;DHT22;26259;50.214;18.620;2023-04-06T08:26:40;3.60;98.80
22678;DHT22;26259;50.214;18.620;2023-04-06T08:29:06;3.50;98.60
22678;DHT22;26259;50.214;18.620;2023-04-06T08:31:35;3.40;99.90
22678;DHT22;26259;50.214;18.620;2023-04-06T08:34:02;3.40;98.80
22678;DHT22;26259;50.214;18.620;2023-04-06T08:36:28;3.40;99.60
22678;DHT22;26259;50.214;18.620;2023-04-06T08:38:54;3.50;99.90
22678;DHT22;26259;50.214;18.620;2023-04-06T08:41:20;3.70;95.40
22678;DHT22;26259;50.214;18.620;2023-04-06T08:43:51;3.50;99.70
22678;DHT22;26259;50.214;18.620;2023-04-06T08:46:18;3.60;96.90
22678;DHT22;26259;50.214;18.620;2023-04-06T08:48:45;3.60;99.90
22678;DHT22;26259;50.214;18.620;2023-04-06T08:51:14;3.70;97.50
22678;DHT22;26259;50.214;18.620;2023-04-06T08:53:40;3.70;96.50
22678;DHT22;26259;50.214;18.620;2023-04-06T08:56:07;3.90;96.50
22678;DHT22;26259;50.214;18.620;2023-04-06T08:58:36;4.00;93.40
22678;DHT22;26259;50.214;18.620;2023-04-06T09:01:07;4.00;91.20
22678;DHT22;26259;50.214;18.620;2023-04-06T09:03:39;4.00;94.30
22678;DHT22;26259;50.214;18.620;2023-04-06T09:06:06;3.90;93.10
22678;DHT22;26259;50.214;18.620;2023-04-06T09:08:35;4.00;94.00
22678;DHT22;26259;50.214;18.620;2023-04-06T09:11:02;4.00;94.90
22678;DHT22;26259;50.214;18.620;2023-04-06T09:13:28;3.90;96.00
22678;DHT22;26259;50.214;18.620;2023-04-06T09:16:03;4.20;93.30
22678;DHT22;26259;50.214;18.620;2023-04-06T09:18:30;4.20;93.60
22678;DHT22;26259;50.214;18.620;2023-04-06T09:21:04;4.20;95.00
22678;DHT22;26259;50.214;18.620;2023-04-06T09:23:30;4.40;90.40
22678;DHT22;26259;50.214;18.620;2023-04-06T09:26:10;4.40;90.30
22678;DHT22;26259;50.214;18.620;2023-04-06T09:31:12;4.50;92.20
22678;DHT22;26259;50.214;18.620;2023-04-06T09:33:40;4.50;81.20
22678;DHT22;26259;50.214;18.620;2023-04-06T09:36:06;4.30;85.00
22678;DHT22;26259;50.214;18.620;2023-04-06T09:38:36;4.30;87.50
22678;DHT22;26259;50.214;18.620;2023-04-06T09:41:02;4.30;88.80
22678;DHT22;26259;50.214;18.620;2023-04-06T09:43:28;4.40;87.80
22678;DHT22;26259;50.214;18.620;2023-04-06T09:45:56;4.70;92.00
22678;DHT22;26259;50.214;18.620;2023-04-06T09:48:22;4.90;72.80
22678;DHT22;26259;50.214;18.620;2023-04-06T09:50:50;4.70;89.20
22678;DHT22;26259;50.214;18.620;2023-04-06T09:53:19;4.80;78.60
22678;DHT22;26259;50.214;18.620;2023-04-06T09:55:46;4.90;76.40
22678;DHT22;26259;50.214;18.620;2023-04-06T09:58:19;4.90;77.10
22678;DHT22;26259;50.214;18.620;2023-04-06T10:03:45;5.10;75.00
22678;DHT22;26259;50.214;18.620;2023-04-06T10:06:13;5.20;75.00
22678;DHT22;26259;50.214;18.620;2023-04-06T10:08:40;5.10;72.60
22678;DHT22;26259;50.214;18.620;2023-04-06T10:11:11;5.30;72.50
22678;DHT22;26259;50.214;18.620;2023-04-06T10:13:37;5.20;70.10
22678;DHT22;26259;50.214;18.620;2023-04-06T10:16:04;5.20;74.80
22678;DHT22;26259;50.214;18.620;2023-04-06T10:18:30;5.20;74.50
22678;DHT22;26259;50.214;18.620;2023-04-06T10:21:28;5.30;69.80
22678;DHT22;26259;50.214;18.620;2023-04-06T10:23:58;5.30;71.30
22678;DHT22;26259;50.214;18.620;2023-04-06T10:26:24;5.40;72.70
22678;DHT22;26259;50.214;18.620;2023-04-06T10:28:50;5.40;69.20
22678;DHT22;26259;50.214;18.620;2023-04-06T10:31:27;5.50;81.20
22678;DHT22;26259;50.214;18.620;2023-04-06T10:34:00;5.60;71.20
22678;DHT22;26259;50.214;18.620;2023-04-06T10:36:33;5.60;70.60
22678;DHT22;26259;50.214;18.620;2023-04-06T10:39:04;5.50;68.30
22678;DHT22;26259;50.214;18.620;2023-04-06T10:41:41;5.50;70.30
22678;DHT22;26259;50.214;18.620;2023-04-06T10:44:07;5.50;66.30
22678;DHT22;26259;50.214;18.620;2023-04-06T10:46:33;5.30;70.20
22678;DHT22;26259;50.214;18.620;2023-04-06T10:49:11;5.30;64.00
22678;DHT22;26259;50.214;18.620;2023-04-06T10:51:38;5.40;69.40
22678;DHT22;26259;50.214;18.620;2023-04-06T10:54:06;5.20;70.60
22678;DHT22;26259;50.214;18.620;2023-04-06T10:56:32;5.30;72.60
22678;DHT22;26259;50.214;18.620;2023-04-06T10:59:02;5.40;74.80
22678;DHT22;26259;50.214;18.620;2023-04-06T11:01:28;5.70;77.80
22678;DHT22;26259;50.214;18.620;2023-04-06T11:03:55;6.00;76.20
22678;DHT22;26259;50.214;18.620;2023-04-06T11:06:30;6.30;70.90
22678;DHT22;26259;50.214;18.620;2023-04-06T11:08:58;6.30;63.80
22678;DHT22;26259;50.214;18.620;2023-04-06T11:11:25;5.90;68.00
22678;DHT22;26259;50.214;18.620;2023-04-06T11:16:20;5.70;68.80
22678;DHT22;26259;50.214;18.620;2023-04-06T11:18:56;5.70;70.40
22678;DHT22;26259;50.214;18.620;2023-04-06T11:24:11;5.50;72.80
22678;DHT22;26259;50.214;18.620;2023-04-06T11:26:47;5.60;74.00
22678;DHT22;26259;50.214;18.620;2023-04-06T11:29:16;5.40;73.00
22678;DHT22;26259;50.214;18.620;2023-04-06T11:31:46;5.20;83.20
22678;DHT22;26259;50.214;18.620;2023-04-06T11:34:15;5.40;78.70
22678;DHT22;26259;50.214;18.620;2023-04-06T11:36:42;5.50;75.60
22678;DHT22;26259;50.214;18.620;2023-04-06T11:39:08;5.70;72.10
22678;DHT22;26259;50.214;18.620;2023-04-06T11:41:33;5.90;69.50
22678;DHT22;26259;50.214;18.620;2023-04-06T11:44:01;5.90;71.30
22678;DHT22;26259;50.214;18.620;2023-04-06T11:46:28;6.30;72.30
22678;DHT22;26259;50.214;18.620;2023-04-06T11:48:58;6.00;64.60
22678;DHT22;26259;50.214;18.620;2023-04-06T11:51:24;5.90;67.00
22678;DHT22;26259;50.214;18.620;2023-04-06T11:53:51;5.90;61.80
22678;DHT22;26259;50.214;18.620;2023-04-06T11:56:30;5.70;64.90
22678;DHT22;26259;50.214;18.620;2023-04-06T11:58:56;5.60;70.30
22678;DHT22;26259;50.214;18.620;2023-04-06T12:01:23;5.60;67.10
22678;DHT22;26259;50.214;18.620;2023-04-06T12:03:50;5.50;66.30
22678;DHT22;26259;50.214;18.620;2023-04-06T12:06:16;5.50;70.60
22678;DHT22;26259;50.214;18.620;2023-04-06T12:08:42;5.50;74.00
22678;DHT22;26259;50.214;18.620;2023-04-06T12:11:07;5.70;74.00
22678;DHT22;26259;50.214;18.620;2023-04-06T12:13:33;5.70;63.00
22678;DHT22;26259;50.214;18.620;2023-04-06T12:15:59;5.60;68.60
22678;DHT22;26259;50.214;18.620;2023-04-06T12:18:24;5.70;66.30
22678;DHT22;26259;50.214;18.620;2023-04-06T12:20:51;5.80;65.90
22678;DHT22;26259;50.214;18.620;2023-04-06T12:23:18;5.80;61.80
22678;DHT22;26259;50.214;18.620;2023-04-06T12:25:44;5.70;68.50
22678;DHT22;26259;50.214;18.620;2023-04-06T12:28:09;5.60;67.70
22678;DHT22;26259;50.214;18.620;2023-04-06T12:30:35;5.60;67.10
22678;DHT22;26259;50.214;18.620;2023-04-06T12:33:01;5.60;69.60
22678;DHT22;26259;50.214;18.620;2023-04-06T12:35:26;5.50;69.10
22678;DHT22;26259;50.214;18.620;2023-04-06T12:37:52;5.30;70.40
22678;DHT22;26259;50.214;18.620;2023-04-06T12:40:18;5.20;71.90
22678;DHT22;26259;50.214;18.620;2023-04-06T12:42:44;5.30;73.10
22678;DHT22;26259;50.214;18.620;2023-04-06T12:45:11;5.60;72.70
22678;DHT22;26259;50.214;18.620;2023-04-06T12:47:37;5.70;68.10
22678;DHT22;26259;50.214;18.620;2023-04-06T12:50:06;5.50;70.10
22678;DHT22;26259;50.214;18.620;2023-04-06T12:52:32;5.50;70.00
22678;DHT22;26259;50.214;18.620;2023-04-06T12:55:01;5.40;75.70
22678;DHT22;26259;50.214;18.620;2023-04-06T12:57:26;5.30;75.10
22678;DHT22;26259;50.214;18.620;2023-04-06T12:59:52;5.30;75.30
22678;DHT22;26259;50.214;18.620;2023-04-06T13:02:18;5.40;77.70
22678;DHT22;26259;50.214;18.620;2023-04-06T13:04:45;5.40;74.00
22678;DHT22;26259;50.214;18.620;2023-04-06T13:07:11;5.40;76.10
22678;DHT22;26259;50.214;18.620;2023-04-06T13:09:37;5.30;74.50
22678;DHT22;26259;50.214;18.620;2023-04-06T13:12:02;5.20;76.90
22678;DHT22;26259;50.214;18.620;2023-04-06T13:14:28;5.10;78.90
22678;DHT22;26259;50.214;18.620;2023-04-06T13:16:54;5.00;83.70
22678;DHT22;26259;50.214;18.620;2023-04-06T13:19:20;5.20;81.20
22678;DHT22;26259;50.214;18.620;2023-04-06T13:21:45;5.30;82.90
22678;DHT22;26259;50.214;18.620;2023-04-06T13:24:11;5.30;76.80
22678;DHT22;26259;50.214;18.620;2023-04-06T13:26:36;5.30;80.80
22678;DHT22;26259;50.214;18.620;2023-04-06T13:29:02;5.30;83.50
22678;DHT22;26259;50.214;18.620;2023-04-06T13:31:28;5.30;82.30
22678;DHT22;26259;50.214;18.620;2023-04-06T13:33:54;5.20;84.90
22678;DHT22;26259;50.214;18.620;2023-04-06T13:36:20;5.20;80.50
22678;DHT22;26259;50.214;18.620;2023-04-06T13:38:46;5.30;83.70
22678;DHT22;26259;50.214;18.620;2023-04-06T13:41:20;5.40;82.40
22678;DHT22;26259;50.214;18.620;2023-04-06T13:43:48;5.50;83.90
22678;DHT22;26259;50.214;18.620;2023-04-06T13:46:14;5.50;82.00
22678;DHT22;26259;50.214;18.620;2023-04-06T13:48:40;5.40;88.40
22678;DHT22;26259;50.214;18.620;2023-04-06T13:51:12;5.40;91.10
22678;DHT22;26259;50.214;18.620;2023-04-06T13:53:39;5.50;88.60
22678;DHT22;26259;50.214;18.620;2023-04-06T13:56:05;5.40;89.90
22678;DHT22;26259;50.214;18.620;2023-04-06T13:58:31;5.30;89.00
22678;DHT22;26259;50.214;18.620;2023-04-06T14:01:06;5.30;88.50
22678;DHT22;26259;50.214;18.620;2023-04-06T14:03:33;5.10;91.80
22678;DHT22;26259;50.214;18.620;2023-04-06T14:05:59;4.90;94.40
22678;DHT22;26259;50.214;18.620;2023-04-06T14:08:24;4.80;99.90
22678;DHT22;26259;50.214;18.620;2023-04-06T14:10:50;4.60;99.90
22678;DHT22;26259;50.214;18.620;2023-04-06T14:13:16;4.50;99.90
22678;DHT22;26259;50.214;18.620;2023-04-06T14:15:42;4.50;99.90
22678;DHT22;26259;50.214;18.620;2023-04-06T14:18:08;4.40;99.90
22678;DHT22;26259;50.214;18.620;2023-04-06T14:20:34;4.40;99.90
22678;DHT22;26259;50.214;18.620;2023-04-06T14:23:01;4.30;99.90
22678;DHT22;26259;50.214;18.620;2023-04-06T14:25:27;4.30;99.90
22678;DHT22;26259;50.214;18.620;2023-04-06T14:27:52;4.30;99.90
22678;DHT22;26259;50.214;18.620;2023-04-06T14:30:18;4.20;99.90
22678;DHT22;26259;50.214;18.620;2023-04-06T14:32:44;4.20;99.90
22678;DHT22;26259;50.214;18.620;2023-04-06T14:35:09;4.20;99.90
22678;DHT22;26259;50.214;18.620;2023-04-06T14:37:35;4.20;99.90
22678;DHT22;26259;50.214;18.620;2023-04-06T14:40:01;4.10;99.90
22678;DHT22;26259;50.214;18.620;2023-04-06T14:42:27;4.20;99.90
22678;DHT22;26259;50.214;18.620;2023-04-06T14:44:53;4.20;99.90
22678;DHT22;26259;50.214;18.620;2023-04-06T14:47:19;4.20;99.90
22678;DHT22;26259;50.214;18.620;2023-04-06T14:49:49;4.20;99.90
22678;DHT22;26259;50.214;18.620;2023-04-06T14:52:15;4.10;99.90
22678;DHT22;26259;50.214;18.620;2023-04-06T14:54:40;4.10;99.90
22678;DHT22;26259;50.214;18.620;2023-04-06T14:57:06;4.00;99.90
22678;DHT22;26259;50.214;18.620;2023-04-06T14:59:32;4.00;99.90
22678;DHT22;26259;50.214;18.620;2023-04-06T15:01:58;4.00;99.90
22678;DHT22;26259;50.214;18.620;2023-04-06T15:04:25;4.00;99.90
22678;DHT22;26259;50.214;18.620;2023-04-06T15:06:51;4.10;99.90
22678;DHT22;26259;50.214;18.620;2023-04-06T15:09:16;4.10;99.90
22678;DHT22;26259;50.214;18.620;2023-04-06T15:11:42;4.10;99.90
22678;DHT22;26259;50.214;18.620;2023-04-06T15:14:07;4.20;99.90
22678;DHT22;26259;50.214;18.620;2023-04-06T15:16:33;4.10;99.90
22678;DHT22;26259;50.214;18.620;2023-04-06T15:18:59;4.10;99.90
22678;DHT22;26259;50.214;18.620;2023-04-06T15:21:25;4.00;99.90
22678;DHT22;26259;50.214;18.620;2023-04-06T15:23:52;3.90;99.90
22678;DHT22;26259;50.214;18.620;2023-04-06T15:26:17;3.90;99.90
22678;DHT22;26259;50.214;18.620;2023-04-06T15:28:43;3.80;99.90
22678;DHT22;26259;50.214;18.620;2023-04-06T15:31:16;3.70;99.90